KMPV/MPV METAR and TAF weather

Enter ICAO airport designator
Station Type Date Time Source
KMPV METAR 2021/09/23 22:51 UTC NOAA

KMPV 232251Z AUTO 15007KT 10SM FEW034 FEW044 22/17 A3006 RMK AO2 SLP176 T02220172 $


Station Type Date Time Source
KMPV Decoded METAR 2021/09/23 22:51 UTC NOAA

KNAPP STATE AIRPORT, VT, United States (KMPV) 44-12N 072-34W 343M
Sep 23, 2021 - 06:51 PM EDT / 2021.09.23 2251 UTC
Wind: from the SSE (150 degrees) at 8 MPH (7 KT):0
Visibility: 10 mile(s):0
Sky conditions: mostly clear
Temperature: 72.0 F (22.2 C)
Dew Point: 63.0 F (17.2 C)
Relative Humidity: 73%
Pressure (altimeter): 30.06 in. Hg (1017 hPa)
ob: KMPV 232251Z AUTO 15007KT 10SM FEW034 FEW044 22/17 A3006 RMK AO2 SLP176 T02220172
cycle: 23

Station Type Date Time Source
KMPV TAF 2021/09/23 18:22 UTC NOAA

TAF KMPV 231720Z 2318/2418 15014G23KT P6SM BKN045
FM240300 15015G24KT P6SM VCSH OVC030
FM240700 16013G23KT 6SM -SHRA OVC020 WS020/16050KT
FM241100 18010G18KT 3SM -SHRA BR OVC009 WS020/16045KT
FM241300 18009KT 2SM -SHRA BR OVC007
FM241600 18007KT 6SM -SHRA BR BKN023

Example: see airport list